This is the latest recevied weather packets stored in our database for station/object K1RFS. If no packets are shown the sender has not sent any weather packets the latest 1 day(s).
| Time | Temp. | Humidity | Pressure | Rain* | Wind** | Luminosity | Snow |
|---|---|---|---|---|---|---|---|
| 1778086528 | 11.11° C | 28% | 1004.5 hPa | 0 mm | - | 35 W/m² | - |
| 1778085618 | 10.56° C | 26% | 1004.4 hPa | 0 mm | - | 34 W/m² | - |
| 1778085314 | 10.56° C | 27% | 1004 hPa | 0 mm | - | 33 W/m² | - |
| 1778082885 | 10.56° C | 33% | 1003.4 hPa | 0 mm | - | 31 W/m² | - |
| 1778081474 | 9.44° C | 40% | 1003.3 hPa | 0 mm | - | 30 W/m² | - |
| 1778081171 | 10° C | 39% | 1003.2 hPa | 0 mm | - | 30 W/m² | - |
| 1778080567 | 10° C | 40% | 1003.3 hPa | 0 mm | - | 29 W/m² | - |
| 1778079960 | 9.44° C | 42% | 1003 hPa | 0 mm | - | 29 W/m² | - |
| 1778079657 | 9.44° C | 39% | 1003 hPa | 0 mm | - | 28 W/m² | - |
| 1778078445 | 8.89° C | 47% | 1002.6 hPa | 0 mm | - | 27 W/m² | - |
| 1778077841 | 8.89° C | 48% | 1002.6 hPa | 0 mm | - | 26 W/m² | - |
| 1778077538 | 8.89° C | 47% | 1002.8 hPa | 0 mm | - | 25 W/m² | - |
| 1778076632 | 8.33° C | 50% | 1002.6 hPa | 0 mm | - | 24 W/m² | - |
| 1778075723 | 8.33° C | 53% | 1002.5 hPa | 0 mm | - | 22 W/m² | - |
| 1778075419 | 7.78° C | 53% | 1002.5 hPa | 0 mm | - | 22 W/m² | - |
| 1778074812 | 7.78° C | 54% | 1002.5 hPa | 0 mm | - | 21 W/m² | - |
| 1778074206 | 7.22° C | 56% | 1002.2 hPa | 0 mm | - | 19 W/m² | - |
| 1778073903 | 6.67° C | 60% | 1002.2 hPa | 0 mm | - | 18 W/m² | - |
| 1778072086 | 5.56° C | 69% | 1001.6 hPa | 0 mm | - | 12 W/m² | - |
| 1778071784 | 5.56° C | 70% | 1001.5 hPa | 0 mm | - | 10 W/m² | - |
| 1778070877 | 6.11° C | 67% | 1001.4 hPa | 0 mm | - | 5 W/m² | - |
| 1778070574 | 6.11° C | 65% | 1001.3 hPa | 0 mm | - | 3 W/m² | - |
| 1778070271 | 6.67° C | 65% | 1001.3 hPa | 0 mm | - | 2 W/m² | - |
| 1778069666 | 6.11° C | 67% | 1001.3 hPa | 0 mm | - | 1 W/m² | - |
| 1778069363 | 6.11° C | 67% | 1000.9 hPa | 0 mm | - | 0 W/m² | - |
* Rain latest hour (hover to see other rain measurements)
** Current wind speed in m/s (hover to see current wind gust speed)